sensor_id;sensor_type;location;lat;lon;timestamp;temperature;humidity
4501;DHT22;2263;54.654;9.410;2022-07-21T00:00:24;25.20;65.20
4501;DHT22;2263;54.654;9.410;2022-07-21T00:02:52;25.20;65.20
4501;DHT22;2263;54.654;9.410;2022-07-21T00:05:20;25.20;65.40
4501;DHT22;2263;54.654;9.410;2022-07-21T00:07:48;25.10;65.30
4501;DHT22;2263;54.654;9.410;2022-07-21T00:10:16;25.10;65.40
4501;DHT22;2263;54.654;9.410;2022-07-21T00:12:43;25.10;65.40
4501;DHT22;2263;54.654;9.410;2022-07-21T00:15:11;25.10;65.40
4501;DHT22;2263;54.654;9.410;2022-07-21T00:17:39;25.00;65.40
4501;DHT22;2263;54.654;9.410;2022-07-21T00:20:08;25.00;65.40
4501;DHT22;2263;54.654;9.410;2022-07-21T00:22:36;25.00;65.50
4501;DHT22;2263;54.654;9.410;2022-07-21T00:25:05;25.00;65.60
4501;DHT22;2263;54.654;9.410;2022-07-21T00:27:34;24.90;65.60
4501;DHT22;2263;54.654;9.410;2022-07-21T00:30:04;24.90;65.60
4501;DHT22;2263;54.654;9.410;2022-07-21T00:32:31;24.90;65.70
4501;DHT22;2263;54.654;9.410;2022-07-21T00:35:04;24.90;65.70
4501;DHT22;2263;54.654;9.410;2022-07-21T00:37:31;24.80;65.60
4501;DHT22;2263;54.654;9.410;2022-07-21T00:39:59;24.80;65.60
4501;DHT22;2263;54.654;9.410;2022-07-21T00:42:28;24.80;65.70
4501;DHT22;2263;54.654;9.410;2022-07-21T00:44:56;24.80;65.70
4501;DHT22;2263;54.654;9.410;2022-07-21T00:47:25;24.80;65.80
4501;DHT22;2263;54.654;9.410;2022-07-21T00:49:54;24.70;65.80
4501;DHT22;2263;54.654;9.410;2022-07-21T00:52:21;24.70;65.90
4501;DHT22;2263;54.654;9.410;2022-07-21T00:54:52;24.70;65.60
4501;DHT22;2263;54.654;9.410;2022-07-21T00:57:20;24.70;65.90
4501;DHT22;2263;54.654;9.410;2022-07-21T00:59:47;24.70;66.00
4501;DHT22;2263;54.654;9.410;2022-07-21T01:02:14;24.70;66.10
4501;DHT22;2263;54.654;9.410;2022-07-21T01:04:42;24.60;66.10
4501;DHT22;2263;54.654;9.410;2022-07-21T01:07:09;24.60;66.10
4501;DHT22;2263;54.654;9.410;2022-07-21T01:09:37;24.60;66.10
4501;DHT22;2263;54.654;9.410;2022-07-21T01:12:05;24.50;66.10
4501;DHT22;2263;54.654;9.410;2022-07-21T01:14:32;24.50;66.20
4501;DHT22;2263;54.654;9.410;2022-07-21T01:17:01;24.50;66.20
4501;DHT22;2263;54.654;9.410;2022-07-21T01:19:29;24.50;66.30
4501;DHT22;2263;54.654;9.410;2022-07-21T01:21:57;24.50;66.40
4501;DHT22;2263;54.654;9.410;2022-07-21T01:24:24;24.50;66.40
4501;DHT22;2263;54.654;9.410;2022-07-21T01:26:52;24.40;66.30
4501;DHT22;2263;54.654;9.410;2022-07-21T01:29:21;24.40;67.20
4501;DHT22;2263;54.654;9.410;2022-07-21T01:31:51;24.40;66.60
4501;DHT22;2263;54.654;9.410;2022-07-21T01:34:18;24.40;66.70
4501;DHT22;2263;54.654;9.410;2022-07-21T01:36:46;24.40;66.70
4501;DHT22;2263;54.654;9.410;2022-07-21T01:39:13;24.30;66.60
4501;DHT22;2263;54.654;9.410;2022-07-21T01:41:59;24.30;66.70
4501;DHT22;2263;54.654;9.410;2022-07-21T01:44:27;24.30;66.70
4501;DHT22;2263;54.654;9.410;2022-07-21T01:46:54;24.30;66.70
4501;DHT22;2263;54.654;9.410;2022-07-21T01:49:21;24.30;66.70
4501;DHT22;2263;54.654;9.410;2022-07-21T01:51:49;24.20;66.60
4501;DHT22;2263;54.654;9.410;2022-07-21T01:54:17;24.20;66.70
4501;DHT22;2263;54.654;9.410;2022-07-21T01:56:50;24.20;66.60
4501;DHT22;2263;54.654;9.410;2022-07-21T01:59:18;24.10;66.60
4501;DHT22;2263;54.654;9.410;2022-07-21T02:01:45;24.20;66.70
4501;DHT22;2263;54.654;9.410;2022-07-21T02:04:14;24.10;66.60
4501;DHT22;2263;54.654;9.410;2022-07-21T02:06:42;24.10;66.80
4501;DHT22;2263;54.654;9.410;2022-07-21T02:09:09;24.10;66.80
4501;DHT22;2263;54.654;9.410;2022-07-21T02:11:37;24.10;66.80
4501;DHT22;2263;54.654;9.410;2022-07-21T02:14:07;24.00;66.80
4501;DHT22;2263;54.654;9.410;2022-07-21T02:16:34;24.00;66.90
4501;DHT22;2263;54.654;9.410;2022-07-21T02:19:02;24.00;67.00
4501;DHT22;2263;54.654;9.410;2022-07-21T02:21:29;24.00;67.00
4501;DHT22;2263;54.654;9.410;2022-07-21T02:23:57;24.00;67.00
4501;DHT22;2263;54.654;9.410;2022-07-21T02:26:24;23.90;67.10
4501;DHT22;2263;54.654;9.410;2022-07-21T02:28:51;23.90;67.00
4501;DHT22;2263;54.654;9.410;2022-07-21T02:31:19;23.90;67.10
4501;DHT22;2263;54.654;9.410;2022-07-21T02:33:46;23.90;67.10
4501;DHT22;2263;54.654;9.410;2022-07-21T02:36:15;23.90;67.10
4501;DHT22;2263;54.654;9.410;2022-07-21T02:38:43;23.80;67.20
4501;DHT22;2263;54.654;9.410;2022-07-21T02:41:10;23.80;67.20
4501;DHT22;2263;54.654;9.410;2022-07-21T02:43:37;23.80;67.20
4501;DHT22;2263;54.654;9.410;2022-07-21T02:46:04;23.70;67.10
4501;DHT22;2263;54.654;9.410;2022-07-21T02:48:32;23.70;67.20
4501;DHT22;2263;54.654;9.410;2022-07-21T02:51:02;23.70;67.30
4501;DHT22;2263;54.654;9.410;2022-07-21T02:53:29;23.70;67.40
4501;DHT22;2263;54.654;9.410;2022-07-21T02:55:57;23.70;67.30
4501;DHT22;2263;54.654;9.410;2022-07-21T02:58:27;23.60;67.20
4501;DHT22;2263;54.654;9.410;2022-07-21T03:01:00;23.60;67.30
4501;DHT22;2263;54.654;9.410;2022-07-21T03:03:30;23.60;67.40
4501;DHT22;2263;54.654;9.410;2022-07-21T03:05:58;23.60;67.50
4501;DHT22;2263;54.654;9.410;2022-07-21T03:08:30;23.60;67.40
4501;DHT22;2263;54.654;9.410;2022-07-21T03:10:57;23.50;67.40
4501;DHT22;2263;54.654;9.410;2022-07-21T03:13:24;23.50;67.30
4501;DHT22;2263;54.654;9.410;2022-07-21T03:15:52;23.50;67.20
4501;DHT22;2263;54.654;9.410;2022-07-21T03:18:20;23.50;67.50
4501;DHT22;2263;54.654;9.410;2022-07-21T03:20:47;23.40;67.20
4501;DHT22;2263;54.654;9.410;2022-07-21T03:23:15;23.40;67.40
4501;DHT22;2263;54.654;9.410;2022-07-21T03:25:42;23.40;67.40
4501;DHT22;2263;54.654;9.410;2022-07-21T03:28:09;23.40;67.40
4501;DHT22;2263;54.654;9.410;2022-07-21T03:30:36;23.30;67.30
4501;DHT22;2263;54.654;9.410;2022-07-21T03:33:04;23.30;67.40
4501;DHT22;2263;54.654;9.410;2022-07-21T03:35:31;23.30;67.60
4501;DHT22;2263;54.654;9.410;2022-07-21T03:37:59;23.30;67.80
4501;DHT22;2263;54.654;9.410;2022-07-21T03:40:29;23.30;68.00
4501;DHT22;2263;54.654;9.410;2022-07-21T03:42:59;23.30;67.90
4501;DHT22;2263;54.654;9.410;2022-07-21T03:45:27;23.20;67.80
4501;DHT22;2263;54.654;9.410;2022-07-21T03:47:58;23.30;68.10
4501;DHT22;2263;54.654;9.410;2022-07-21T03:50:26;23.20;67.90
4501;DHT22;2263;54.654;9.410;2022-07-21T03:52:54;23.20;67.80
4501;DHT22;2263;54.654;9.410;2022-07-21T03:55:21;23.20;67.70
4501;DHT22;2263;54.654;9.410;2022-07-21T03:57:53;23.20;68.00
4501;DHT22;2263;54.654;9.410;2022-07-21T04:00:28;23.20;68.20
4501;DHT22;2263;54.654;9.410;2022-07-21T04:02:57;23.20;68.30
4501;DHT22;2263;54.654;9.410;2022-07-21T04:05:26;23.10;68.20
4501;DHT22;2263;54.654;9.410;2022-07-21T04:07:54;23.10;68.20
4501;DHT22;2263;54.654;9.410;2022-07-21T04:10:24;23.10;68.20
4501;DHT22;2263;54.654;9.410;2022-07-21T04:12:55;23.10;68.30
4501;DHT22;2263;54.654;9.410;2022-07-21T04:15:23;23.10;67.80
4501;DHT22;2263;54.654;9.410;2022-07-21T04:17:51;23.10;68.40
4501;DHT22;2263;54.654;9.410;2022-07-21T04:20:18;23.10;68.50
4501;DHT22;2263;54.654;9.410;2022-07-21T04:22:47;23.00;68.40
4501;DHT22;2263;54.654;9.410;2022-07-21T04:25:15;23.00;68.70
4501;DHT22;2263;54.654;9.410;2022-07-21T04:27:43;23.00;68.60
4501;DHT22;2263;54.654;9.410;2022-07-21T04:30:13;23.00;68.80
4501;DHT22;2263;54.654;9.410;2022-07-21T04:32:42;23.00;68.80
4501;DHT22;2263;54.654;9.410;2022-07-21T04:35:09;23.00;68.70
4501;DHT22;2263;54.654;9.410;2022-07-21T04:37:37;23.00;68.70
4501;DHT22;2263;54.654;9.410;2022-07-21T04:40:06;23.00;68.80
4501;DHT22;2263;54.654;9.410;2022-07-21T04:42:34;22.90;68.70
4501;DHT22;2263;54.654;9.410;2022-07-21T04:45:03;22.90;69.10
4501;DHT22;2263;54.654;9.410;2022-07-21T04:47:30;22.90;69.00
4501;DHT22;2263;54.654;9.410;2022-07-21T04:49:58;22.90;69.00
4501;DHT22;2263;54.654;9.410;2022-07-21T04:52:25;22.90;69.00
4501;DHT22;2263;54.654;9.410;2022-07-21T04:54:52;22.90;69.00
4501;DHT22;2263;54.654;9.410;2022-07-21T04:57:19;22.90;69.10
4501;DHT22;2263;54.654;9.410;2022-07-21T04:59:46;22.90;69.00
4501;DHT22;2263;54.654;9.410;2022-07-21T05:02:13;22.90;69.30
4501;DHT22;2263;54.654;9.410;2022-07-21T05:04:41;22.90;69.10
4501;DHT22;2263;54.654;9.410;2022-07-21T05:07:08;22.80;69.10
4501;DHT22;2263;54.654;9.410;2022-07-21T05:09:35;22.90;69.20
4501;DHT22;2263;54.654;9.410;2022-07-21T05:12:03;22.80;69.40
4501;DHT22;2263;54.654;9.410;2022-07-21T05:14:30;22.90;69.20
4501;DHT22;2263;54.654;9.410;2022-07-21T05:16:57;22.80;69.00
4501;DHT22;2263;54.654;9.410;2022-07-21T05:19:24;22.80;69.10
4501;DHT22;2263;54.654;9.410;2022-07-21T05:21:52;22.80;69.10
4501;DHT22;2263;54.654;9.410;2022-07-21T05:24:19;22.80;69.20
4501;DHT22;2263;54.654;9.410;2022-07-21T05:26:46;22.80;69.40
4501;DHT22;2263;54.654;9.410;2022-07-21T05:29:13;22.80;69.70
4501;DHT22;2263;54.654;9.410;2022-07-21T05:31:40;22.80;69.60
4501;DHT22;2263;54.654;9.410;2022-07-21T05:34:07;22.80;69.50
4501;DHT22;2263;54.654;9.410;2022-07-21T05:36:35;22.80;69.30
4501;DHT22;2263;54.654;9.410;2022-07-21T05:39:07;22.80;69.30
4501;DHT22;2263;54.654;9.410;2022-07-21T05:41:34;22.80;69.50
4501;DHT22;2263;54.654;9.410;2022-07-21T05:44:01;22.80;69.40
4501;DHT22;2263;54.654;9.410;2022-07-21T05:46:28;22.80;69.40
4501;DHT22;2263;54.654;9.410;2022-07-21T05:48:56;22.80;69.80
4501;DHT22;2263;54.654;9.410;2022-07-21T05:51:23;22.80;69.70
4501;DHT22;2263;54.654;9.410;2022-07-21T05:53:50;22.80;69.70
4501;DHT22;2263;54.654;9.410;2022-07-21T05:56:18;22.90;69.80
4501;DHT22;2263;54.654;9.410;2022-07-21T05:58:49;22.80;69.70
4501;DHT22;2263;54.654;9.410;2022-07-21T06:01:16;22.80;69.70
4501;DHT22;2263;54.654;9.410;2022-07-21T06:03:47;22.80;70.00
4501;DHT22;2263;54.654;9.410;2022-07-21T06:06:16;22.80;70.60
4501;DHT22;2263;54.654;9.410;2022-07-21T06:08:46;22.80;70.00
4501;DHT22;2263;54.654;9.410;2022-07-21T06:11:16;22.90;70.10
4501;DHT22;2263;54.654;9.410;2022-07-21T06:13:44;22.80;70.40
4501;DHT22;2263;54.654;9.410;2022-07-21T06:16:12;22.80;70.10
4501;DHT22;2263;54.654;9.410;2022-07-21T06:18:39;22.90;70.40
4501;DHT22;2263;54.654;9.410;2022-07-21T06:21:07;22.80;70.50
4501;DHT22;2263;54.654;9.410;2022-07-21T06:23:37;22.90;70.60
4501;DHT22;2263;54.654;9.410;2022-07-21T06:26:04;22.90;70.60
4501;DHT22;2263;54.654;9.410;2022-07-21T06:28:31;22.90;70.40
4501;DHT22;2263;54.654;9.410;2022-07-21T06:30:58;22.90;71.30
4501;DHT22;2263;54.654;9.410;2022-07-21T06:33:26;22.90;70.50
4501;DHT22;2263;54.654;9.410;2022-07-21T06:35:53;22.90;70.20
4501;DHT22;2263;54.654;9.410;2022-07-21T06:38:20;22.90;70.10
4501;DHT22;2263;54.654;9.410;2022-07-21T06:40:47;23.00;70.50
4501;DHT22;2263;54.654;9.410;2022-07-21T06:43:14;23.00;70.20
4501;DHT22;2263;54.654;9.410;2022-07-21T06:45:53;23.00;70.20
4501;DHT22;2263;54.654;9.410;2022-07-21T06:48:20;23.00;70.20
4501;DHT22;2263;54.654;9.410;2022-07-21T06:50:49;23.00;70.20
4501;DHT22;2263;54.654;9.410;2022-07-21T06:53:16;23.00;70.20
4501;DHT22;2263;54.654;9.410;2022-07-21T06:55:44;23.00;70.20
4501;DHT22;2263;54.654;9.410;2022-07-21T06:58:18;23.00;70.10
4501;DHT22;2263;54.654;9.410;2022-07-21T07:00:47;23.00;70.40
4501;DHT22;2263;54.654;9.410;2022-07-21T07:03:16;23.10;70.40
4501;DHT22;2263;54.654;9.410;2022-07-21T07:05:47;23.10;70.30
4501;DHT22;2263;54.654;9.410;2022-07-21T07:08:15;23.10;70.30
4501;DHT22;2263;54.654;9.410;2022-07-21T07:10:43;23.10;70.30
4501;DHT22;2263;54.654;9.410;2022-07-21T07:13:10;23.10;70.30
4501;DHT22;2263;54.654;9.410;2022-07-21T07:15:58;23.10;70.30
4501;DHT22;2263;54.654;9.410;2022-07-21T07:18:25;23.10;70.20
4501;DHT22;2263;54.654;9.410;2022-07-21T07:20:52;23.10;70.30
4501;DHT22;2263;54.654;9.410;2022-07-21T07:23:20;23.20;70.30
4501;DHT22;2263;54.654;9.410;2022-07-21T07:25:47;23.10;70.30
4501;DHT22;2263;54.654;9.410;2022-07-21T07:28:14;23.10;70.20
4501;DHT22;2263;54.654;9.410;2022-07-21T07:30:42;23.20;70.50
4501;DHT22;2263;54.654;9.410;2022-07-21T07:33:09;23.10;70.40
4501;DHT22;2263;54.654;9.410;2022-07-21T07:35:37;23.10;70.40
4501;DHT22;2263;54.654;9.410;2022-07-21T07:38:04;23.10;70.50
4501;DHT22;2263;54.654;9.410;2022-07-21T07:40:31;23.10;70.50
4501;DHT22;2263;54.654;9.410;2022-07-21T07:42:59;23.10;70.80
4501;DHT22;2263;54.654;9.410;2022-07-21T07:45:37;23.10;70.70
4501;DHT22;2263;54.654;9.410;2022-07-21T07:48:05;23.10;70.50
4501;DHT22;2263;54.654;9.410;2022-07-21T07:50:32;23.10;70.70
4501;DHT22;2263;54.654;9.410;2022-07-21T07:53:00;23.10;70.40
4501;DHT22;2263;54.654;9.410;2022-07-21T07:55:27;23.10;70.40
4501;DHT22;2263;54.654;9.410;2022-07-21T07:57:54;23.10;70.30
4501;DHT22;2263;54.654;9.410;2022-07-21T08:00:21;23.10;70.50
4501;DHT22;2263;54.654;9.410;2022-07-21T08:03:09;23.10;70.50
4501;DHT22;2263;54.654;9.410;2022-07-21T08:05:36;23.10;70.60
4501;DHT22;2263;54.654;9.410;2022-07-21T08:08:03;23.10;70.60
4501;DHT22;2263;54.654;9.410;2022-07-21T08:10:31;23.10;70.50
4501;DHT22;2263;54.654;9.410;2022-07-21T08:13:09;23.10;70.40
4501;DHT22;2263;54.654;9.410;2022-07-21T08:15:37;23.10;70.70
4501;DHT22;2263;54.654;9.410;2022-07-21T08:18:07;23.10;70.60
4501;DHT22;2263;54.654;9.410;2022-07-21T08:20:34;23.10;70.90
4501;DHT22;2263;54.654;9.410;2022-07-21T08:23:02;23.10;70.70
4501;DHT22;2263;54.654;9.410;2022-07-21T08:25:30;23.10;70.80
4501;DHT22;2263;54.654;9.410;2022-07-21T08:27:57;23.10;70.70
4501;DHT22;2263;54.654;9.410;2022-07-21T08:30:24;23.10;70.80
4501;DHT22;2263;54.654;9.410;2022-07-21T08:32:57;23.10;70.70
4501;DHT22;2263;54.654;9.410;2022-07-21T08:35:26;23.10;70.80
4501;DHT22;2263;54.654;9.410;2022-07-21T08:37:56;23.10;71.20
4501;DHT22;2263;54.654;9.410;2022-07-21T08:40:25;23.10;71.00
4501;DHT22;2263;54.654;9.410;2022-07-21T08:42:53;23.10;71.10
4501;DHT22;2263;54.654;9.410;2022-07-21T08:45:22;23.10;71.10
4501;DHT22;2263;54.654;9.410;2022-07-21T08:47:57;23.10;71.10
4501;DHT22;2263;54.654;9.410;2022-07-21T08:50:29;23.10;71.20
4501;DHT22;2263;54.654;9.410;2022-07-21T08:52:57;23.10;71.60
4501;DHT22;2263;54.654;9.410;2022-07-21T08:55:35;23.20;71.70
4501;DHT22;2263;54.654;9.410;2022-07-21T08:58:03;23.20;71.70
4501;DHT22;2263;54.654;9.410;2022-07-21T09:00:33;23.30;72.50
4501;DHT22;2263;54.654;9.410;2022-07-21T09:03:21;23.20;71.70
4501;DHT22;2263;54.654;9.410;2022-07-21T09:08:40;23.20;72.30
4501;DHT22;2263;54.654;9.410;2022-07-21T09:13:41;23.20;72.40
4501;DHT22;2263;54.654;9.410;2022-07-21T09:16:09;23.20;72.40
4501;DHT22;2263;54.654;9.410;2022-07-21T09:18:50;23.20;72.00
4501;DHT22;2263;54.654;9.410;2022-07-21T09:21:18;23.20;71.90
4501;DHT22;2263;54.654;9.410;2022-07-21T09:23:46;23.20;71.80
4501;DHT22;2263;54.654;9.410;2022-07-21T09:26:13;23.20;71.80
4501;DHT22;2263;54.654;9.410;2022-07-21T09:28:42;23.20;72.00
4501;DHT22;2263;54.654;9.410;2022-07-21T09:31:10;23.20;72.10
4501;DHT22;2263;54.654;9.410;2022-07-21T09:33:41;23.20;72.10
4501;DHT22;2263;54.654;9.410;2022-07-21T09:36:16;23.10;71.90
4501;DHT22;2263;54.654;9.410;2022-07-21T09:38:54;23.20;71.80
4501;DHT22;2263;54.654;9.410;2022-07-21T09:41:26;23.10;71.80
4501;DHT22;2263;54.654;9.410;2022-07-21T09:43:56;23.10;71.90
4501;DHT22;2263;54.654;9.410;2022-07-21T09:46:25;23.10;71.80
4501;DHT22;2263;54.654;9.410;2022-07-21T09:48:59;23.10;72.00
4501;DHT22;2263;54.654;9.410;2022-07-21T09:51:47;23.10;72.20
4501;DHT22;2263;54.654;9.410;2022-07-21T09:54:15;23.10;72.10
4501;DHT22;2263;54.654;9.410;2022-07-21T09:56:45;23.10;72.10
4501;DHT22;2263;54.654;9.410;2022-07-21T09:59:14;23.00;72.30
4501;DHT22;2263;54.654;9.410;2022-07-21T10:01:41;23.00;72.50
4501;DHT22;2263;54.654;9.410;2022-07-21T10:04:09;23.00;72.90
4501;DHT22;2263;54.654;9.410;2022-07-21T10:06:39;23.00;73.20
4501;DHT22;2263;54.654;9.410;2022-07-21T10:09:08;23.00;73.40
4501;DHT22;2263;54.654;9.410;2022-07-21T10:11:40;22.90;73.60
4501;DHT22;2263;54.654;9.410;2022-07-21T10:14:10;23.00;74.00
4501;DHT22;2263;54.654;9.410;2022-07-21T10:16:38;23.00;74.10
4501;DHT22;2263;54.654;9.410;2022-07-21T10:19:26;23.00;73.90
4501;DHT22;2263;54.654;9.410;2022-07-21T10:22:14;23.00;74.00
4501;DHT22;2263;54.654;9.410;2022-07-21T10:24:44;23.00;73.70
4501;DHT22;2263;54.654;9.410;2022-07-21T10:27:13;23.00;74.40
4501;DHT22;2263;54.654;9.410;2022-07-21T10:30:01;23.10;75.10
4501;DHT22;2263;54.654;9.410;2022-07-21T10:32:34;23.20;75.50
4501;DHT22;2263;54.654;9.410;2022-07-21T10:35:29;23.20;76.00
4501;DHT22;2263;54.654;9.410;2022-07-21T10:37:58;23.30;76.50
4501;DHT22;2263;54.654;9.410;2022-07-21T10:45:37;23.50;75.90
4501;DHT22;2263;54.654;9.410;2022-07-21T10:50:52;23.60;75.90
4501;DHT22;2263;54.654;9.410;2022-07-21T10:53:24;23.60;75.70
4501;DHT22;2263;54.654;9.410;2022-07-21T10:55:53;23.70;75.60
4501;DHT22;2263;54.654;9.410;2022-07-21T10:58:37;23.70;75.50
4501;DHT22;2263;54.654;9.410;2022-07-21T11:01:05;23.70;75.40
4501;DHT22;2263;54.654;9.410;2022-07-21T11:03:40;23.70;75.40
4501;DHT22;2263;54.654;9.410;2022-07-21T11:06:26;23.80;75.30
4501;DHT22;2263;54.654;9.410;2022-07-21T11:11:55;23.80;75.10
4501;DHT22;2263;54.654;9.410;2022-07-21T11:17:03;23.90;75.00
4501;DHT22;2263;54.654;9.410;2022-07-21T11:19:37;23.90;74.90
4501;DHT22;2263;54.654;9.410;2022-07-21T11:22:24;24.00;75.70
4501;DHT22;2263;54.654;9.410;2022-07-21T11:25:04;24.00;74.90
4501;DHT22;2263;54.654;9.410;2022-07-21T11:27:34;24.00;75.00
4501;DHT22;2263;54.654;9.410;2022-07-21T11:30:09;24.00;74.80
4501;DHT22;2263;54.654;9.410;2022-07-21T11:32:36;24.00;74.50
4501;DHT22;2263;54.654;9.410;2022-07-21T11:35:06;24.10;74.50
4501;DHT22;2263;54.654;9.410;2022-07-21T11:37:40;24.10;74.50
4501;DHT22;2263;54.654;9.410;2022-07-21T11:40:13;24.10;74.50
4501;DHT22;2263;54.654;9.410;2022-07-21T11:42:46;24.20;74.70
4501;DHT22;2263;54.654;9.410;2022-07-21T11:45:14;24.30;75.10
4501;DHT22;2263;54.654;9.410;2022-07-21T11:47:42;24.40;74.80
4501;DHT22;2263;54.654;9.410;2022-07-21T11:50:18;24.40;74.30
4501;DHT22;2263;54.654;9.410;2022-07-21T11:52:46;24.40;74.30
4501;DHT22;2263;54.654;9.410;2022-07-21T11:55:13;24.40;74.40
4501;DHT22;2263;54.654;9.410;2022-07-21T11:57:45;24.50;74.40
4501;DHT22;2263;54.654;9.410;2022-07-21T12:00:14;24.50;74.20
4501;DHT22;2263;54.654;9.410;2022-07-21T12:02:47;24.50;74.10
4501;DHT22;2263;54.654;9.410;2022-07-21T12:05:16;24.50;74.20
4501;DHT22;2263;54.654;9.410;2022-07-21T12:07:47;24.50;74.10
4501;DHT22;2263;54.654;9.410;2022-07-21T12:10:24;24.50;74.00
4501;DHT22;2263;54.654;9.410;2022-07-21T12:13:01;24.50;74.00
4501;DHT22;2263;54.654;9.410;2022-07-21T12:15:31;24.60;74.20
4501;DHT22;2263;54.654;9.410;2022-07-21T12:18:20;24.60;73.80
4501;DHT22;2263;54.654;9.410;2022-07-21T12:20:48;24.60;73.70
4501;DHT22;2263;54.654;9.410;2022-07-21T12:23:23;24.60;73.60
4501;DHT22;2263;54.654;9.410;2022-07-21T12:25:52;24.60;73.70
4501;DHT22;2263;54.654;9.410;2022-07-21T12:28:42;24.60;73.60
4501;DHT22;2263;54.654;9.410;2022-07-21T12:31:13;24.60;73.60
4501;DHT22;2263;54.654;9.410;2022-07-21T12:33:41;24.60;73.70
4501;DHT22;2263;54.654;9.410;2022-07-21T12:36:29;24.60;73.50
4501;DHT22;2263;54.654;9.410;2022-07-21T12:38:56;24.60;73.50
4501;DHT22;2263;54.654;9.410;2022-07-21T12:41:23;24.60;73.40
4501;DHT22;2263;54.654;9.410;2022-07-21T12:43:56;24.50;73.20
4501;DHT22;2263;54.654;9.410;2022-07-21T12:46:34;24.50;73.30
4501;DHT22;2263;54.654;9.410;2022-07-21T12:49:09;24.50;73.30
4501;DHT22;2263;54.654;9.410;2022-07-21T12:51:39;24.50;73.30
4501;DHT22;2263;54.654;9.410;2022-07-21T12:54:09;24.50;73.40
4501;DHT22;2263;54.654;9.410;2022-07-21T12:56:37;24.50;73.30
4501;DHT22;2263;54.654;9.410;2022-07-21T12:59:04;24.50;73.30
4501;DHT22;2263;54.654;9.410;2022-07-21T13:01:33;24.50;73.30
4501;DHT22;2263;54.654;9.410;2022-07-21T13:04:04;24.50;73.30
4501;DHT22;2263;54.654;9.410;2022-07-21T13:06:31;24.50;73.20
4501;DHT22;2263;54.654;9.410;2022-07-21T13:08:59;24.50;73.20
4501;DHT22;2263;54.654;9.410;2022-07-21T13:11:27;24.40;73.10
4501;DHT22;2263;54.654;9.410;2022-07-21T13:13:54;24.40;73.10
4501;DHT22;2263;54.654;9.410;2022-07-21T13:16:24;24.40;73.00
4501;DHT22;2263;54.654;9.410;2022-07-21T13:18:52;24.40;73.00
4501;DHT22;2263;54.654;9.410;2022-07-21T13:21:20;24.40;72.90
4501;DHT22;2263;54.654;9.410;2022-07-21T13:23:47;24.40;72.90
4501;DHT22;2263;54.654;9.410;2022-07-21T13:26:14;24.40;72.80
4501;DHT22;2263;54.654;9.410;2022-07-21T13:28:42;24.40;72.80
4501;DHT22;2263;54.654;9.410;2022-07-21T13:31:09;24.40;72.70
4501;DHT22;2263;54.654;9.410;2022-07-21T13:33:37;24.40;72.70
4501;DHT22;2263;54.654;9.410;2022-07-21T13:36:06;24.40;72.70
4501;DHT22;2263;54.654;9.410;2022-07-21T13:38:34;24.40;72.80
4501;DHT22;2263;54.654;9.410;2022-07-21T13:41:02;24.40;72.80
4501;DHT22;2263;54.654;9.410;2022-07-21T13:43:50;24.40;72.80
4501;DHT22;2263;54.654;9.410;2022-07-21T13:46:18;24.40;72.80
4501;DHT22;2263;54.654;9.410;2022-07-21T13:48:46;24.30;72.60
4501;DHT22;2263;54.654;9.410;2022-07-21T13:51:14;24.30;72.70
4501;DHT22;2263;54.654;9.410;2022-07-21T13:53:44;24.30;72.70
4501;DHT22;2263;54.654;9.410;2022-07-21T13:56:13;24.30;72.50
4501;DHT22;2263;54.654;9.410;2022-07-21T13:58:41;24.30;72.60
4501;DHT22;2263;54.654;9.410;2022-07-21T14:01:10;24.20;72.50
4501;DHT22;2263;54.654;9.410;2022-07-21T14:03:39;24.30;72.60
4501;DHT22;2263;54.654;9.410;2022-07-21T14:06:07;24.20;72.60
4501;DHT22;2263;54.654;9.410;2022-07-21T14:08:35;24.20;72.60
4501;DHT22;2263;54.654;9.410;2022-07-21T14:11:03;24.20;72.50
4501;DHT22;2263;54.654;9.410;2022-07-21T14:13:31;24.20;72.60
4501;DHT22;2263;54.654;9.410;2022-07-21T14:15:58;24.20;72.60
4501;DHT22;2263;54.654;9.410;2022-07-21T14:18:25;24.20;72.60
4501;DHT22;2263;54.654;9.410;2022-07-21T14:20:53;24.10;72.60
4501;DHT22;2263;54.654;9.410;2022-07-21T14:23:21;24.20;72.70
4501;DHT22;2263;54.654;9.410;2022-07-21T14:25:50;24.10;72.70
4501;DHT22;2263;54.654;9.410;2022-07-21T14:28:20;24.10;72.70
4501;DHT22;2263;54.654;9.410;2022-07-21T14:30:48;24.10;72.70
4501;DHT22;2263;54.654;9.410;2022-07-21T14:33:15;24.10;72.80
4501;DHT22;2263;54.654;9.410;2022-07-21T14:35:45;24.10;72.90
4501;DHT22;2263;54.654;9.410;2022-07-21T14:38:12;24.10;72.90
4501;DHT22;2263;54.654;9.410;2022-07-21T14:40:40;24.10;72.90
4501;DHT22;2263;54.654;9.410;2022-07-21T14:43:07;24.10;73.10
4501;DHT22;2263;54.654;9.410;2022-07-21T14:45:34;24.00;73.10
4501;DHT22;2263;54.654;9.410;2022-07-21T14:48:01;24.10;73.30
4501;DHT22;2263;54.654;9.410;2022-07-21T14:50:29;24.00;73.40
4501;DHT22;2263;54.654;9.410;2022-07-21T14:52:59;24.00;73.40
4501;DHT22;2263;54.654;9.410;2022-07-21T14:55:27;24.00;73.50
4501;DHT22;2263;54.654;9.410;2022-07-21T14:57:55;24.00;73.70
4501;DHT22;2263;54.654;9.410;2022-07-21T15:00:23;24.00;73.80
4501;DHT22;2263;54.654;9.410;2022-07-21T15:02:52;24.00;73.80
4501;DHT22;2263;54.654;9.410;2022-07-21T15:05:20;24.00;74.00
4501;DHT22;2263;54.654;9.410;2022-07-21T15:07:48;24.00;74.00
4501;DHT22;2263;54.654;9.410;2022-07-21T15:10:15;24.00;74.00
4501;DHT22;2263;54.654;9.410;2022-07-21T15:12:42;24.00;74.10
4501;DHT22;2263;54.654;9.410;2022-07-21T15:15:10;24.00;74.20
4501;DHT22;2263;54.654;9.410;2022-07-21T15:17:37;24.00;74.20
4501;DHT22;2263;54.654;9.410;2022-07-21T15:20:05;24.00;74.20
4501;DHT22;2263;54.654;9.410;2022-07-21T15:22:40;24.00;74.30
4501;DHT22;2263;54.654;9.410;2022-07-21T15:25:08;24.00;74.40
4501;DHT22;2263;54.654;9.410;2022-07-21T15:27:42;24.00;74.30
4501;DHT22;2263;54.654;9.410;2022-07-21T15:30:12;24.00;74.10
4501;DHT22;2263;54.654;9.410;2022-07-21T15:32:41;24.00;74.30
4501;DHT22;2263;54.654;9.410;2022-07-21T15:35:10;24.00;74.40
4501;DHT22;2263;54.654;9.410;2022-07-21T15:37:37;24.00;74.70
4501;DHT22;2263;54.654;9.410;2022-07-21T15:40:06;24.00;74.70
4501;DHT22;2263;54.654;9.410;2022-07-21T15:42:34;24.00;74.70
4501;DHT22;2263;54.654;9.410;2022-07-21T15:45:05;24.00;74.80
4501;DHT22;2263;54.654;9.410;2022-07-21T15:47:32;24.00;74.80
4501;DHT22;2263;54.654;9.410;2022-07-21T15:49:59;24.00;74.80
4501;DHT22;2263;54.654;9.410;2022-07-21T15:52:27;24.00;74.90
4501;DHT22;2263;54.654;9.410;2022-07-21T15:54:55;24.00;74.80
4501;DHT22;2263;54.654;9.410;2022-07-21T15:57:27;24.00;74.90
4501;DHT22;2263;54.654;9.410;2022-07-21T15:59:54;23.90;74.80
4501;DHT22;2263;54.654;9.410;2022-07-21T16:02:22;23.90;74.80
4501;DHT22;2263;54.654;9.410;2022-07-21T16:04:49;23.90;74.90
4501;DHT22;2263;54.654;9.410;2022-07-21T16:07:16;23.90;74.90
4501;DHT22;2263;54.654;9.410;2022-07-21T16:09:44;23.90;74.90
4501;DHT22;2263;54.654;9.410;2022-07-21T16:12:12;24.00;75.00
4501;DHT22;2263;54.654;9.410;2022-07-21T16:14:39;23.90;74.90
4501;DHT22;2263;54.654;9.410;2022-07-21T16:17:08;23.90;75.00
4501;DHT22;2263;54.654;9.410;2022-07-21T16:19:36;23.90;75.00
4501;DHT22;2263;54.654;9.410;2022-07-21T16:22:04;23.90;75.10
4501;DHT22;2263;54.654;9.410;2022-07-21T16:24:32;23.90;75.00
4501;DHT22;2263;54.654;9.410;2022-07-21T16:27:00;23.90;75.20
4501;DHT22;2263;54.654;9.410;2022-07-21T16:29:27;23.90;75.20
4501;DHT22;2263;54.654;9.410;2022-07-21T16:31:57;23.90;75.10
4501;DHT22;2263;54.654;9.410;2022-07-21T16:34:30;23.90;75.20